sensor_id;sensor_type;location;lat;lon;timestamp;temperature;humidity
947;DHT22;460;48.734;9.152;2022-07-29T00:01:09;19.50;99.90
947;DHT22;460;48.734;9.152;2022-07-29T00:03:40;19.50;99.90
947;DHT22;460;48.734;9.152;2022-07-29T00:06:07;19.50;99.90
947;DHT22;460;48.734;9.152;2022-07-29T00:08:34;19.40;99.90
947;DHT22;460;48.734;9.152;2022-07-29T00:11:01;19.50;99.90
947;DHT22;460;48.734;9.152;2022-07-29T00:13:28;19.60;99.90
947;DHT22;460;48.734;9.152;2022-07-29T00:15:57;19.60;99.90
947;DHT22;460;48.734;9.152;2022-07-29T00:18:25;19.60;99.90
947;DHT22;460;48.734;9.152;2022-07-29T00:20:52;19.60;99.90
947;DHT22;460;48.734;9.152;2022-07-29T00:23:20;19.60;99.90
947;DHT22;460;48.734;9.152;2022-07-29T00:25:48;19.60;99.90
947;DHT22;460;48.734;9.152;2022-07-29T00:28:15;19.50;99.90
947;DHT22;460;48.734;9.152;2022-07-29T00:30:43;19.40;99.90
947;DHT22;460;48.734;9.152;2022-07-29T00:33:12;19.30;99.90
947;DHT22;460;48.734;9.152;2022-07-29T00:35:40;19.20;99.90
947;DHT22;460;48.734;9.152;2022-07-29T00:38:10;19.30;99.90
947;DHT22;460;48.734;9.152;2022-07-29T00:40:37;19.40;99.90
947;DHT22;460;48.734;9.152;2022-07-29T00:43:05;19.50;99.90
947;DHT22;460;48.734;9.152;2022-07-29T00:45:33;19.50;99.90
947;DHT22;460;48.734;9.152;2022-07-29T00:48:02;19.30;99.90
947;DHT22;460;48.734;9.152;2022-07-29T00:50:33;19.40;99.90
947;DHT22;460;48.734;9.152;2022-07-29T00:53:02;19.40;99.90
947;DHT22;460;48.734;9.152;2022-07-29T00:55:31;19.30;99.90
947;DHT22;460;48.734;9.152;2022-07-29T00:57:59;19.30;99.90
947;DHT22;460;48.734;9.152;2022-07-29T01:00:27;19.30;99.90
947;DHT22;460;48.734;9.152;2022-07-29T01:02:54;19.40;99.90
947;DHT22;460;48.734;9.152;2022-07-29T01:05:23;19.40;99.90
947;DHT22;460;48.734;9.152;2022-07-29T01:07:53;19.40;99.90
947;DHT22;460;48.734;9.152;2022-07-29T01:10:21;19.30;99.90
947;DHT22;460;48.734;9.152;2022-07-29T01:12:50;19.30;99.90
947;DHT22;460;48.734;9.152;2022-07-29T01:15:18;19.00;99.90
947;DHT22;460;48.734;9.152;2022-07-29T01:17:52;18.90;99.90
947;DHT22;460;48.734;9.152;2022-07-29T01:20:26;18.90;99.90
947;DHT22;460;48.734;9.152;2022-07-29T01:26:09;19.00;99.90
947;DHT22;460;48.734;9.152;2022-07-29T01:28:52;19.00;99.90
947;DHT22;460;48.734;9.152;2022-07-29T01:31:31;18.90;99.90
947;DHT22;460;48.734;9.152;2022-07-29T01:34:05;19.00;99.90
947;DHT22;460;48.734;9.152;2022-07-29T01:36:40;18.90;99.90
947;DHT22;460;48.734;9.152;2022-07-29T01:39:12;18.80;99.90
947;DHT22;460;48.734;9.152;2022-07-29T01:41:48;18.70;99.90
947;DHT22;460;48.734;9.152;2022-07-29T01:44:21;18.60;99.90
947;DHT22;460;48.734;9.152;2022-07-29T01:46:54;18.50;99.90
947;DHT22;460;48.734;9.152;2022-07-29T01:49:27;18.60;99.90
947;DHT22;460;48.734;9.152;2022-07-29T01:52:00;18.70;99.90
947;DHT22;460;48.734;9.152;2022-07-29T01:54:34;18.70;99.90
947;DHT22;460;48.734;9.152;2022-07-29T01:57:04;18.70;99.90
947;DHT22;460;48.734;9.152;2022-07-29T01:59:35;18.70;99.90
947;DHT22;460;48.734;9.152;2022-07-29T02:02:04;18.50;99.90
947;DHT22;460;48.734;9.152;2022-07-29T02:04:35;18.50;99.90
947;DHT22;460;48.734;9.152;2022-07-29T02:07:05;18.40;99.90
947;DHT22;460;48.734;9.152;2022-07-29T02:09:35;18.50;99.90
947;DHT22;460;48.734;9.152;2022-07-29T02:12:03;18.50;99.90
947;DHT22;460;48.734;9.152;2022-07-29T02:14:35;18.70;99.90
947;DHT22;460;48.734;9.152;2022-07-29T02:17:03;18.60;99.90
947;DHT22;460;48.734;9.152;2022-07-29T02:19:32;18.70;99.90
947;DHT22;460;48.734;9.152;2022-07-29T02:22:00;18.60;99.90
947;DHT22;460;48.734;9.152;2022-07-29T02:24:28;18.60;99.90
947;DHT22;460;48.734;9.152;2022-07-29T02:26:56;18.50;99.90
947;DHT22;460;48.734;9.152;2022-07-29T02:29:26;18.50;99.90
947;DHT22;460;48.734;9.152;2022-07-29T02:31:57;18.50;99.90
947;DHT22;460;48.734;9.152;2022-07-29T02:34:25;18.60;99.90
947;DHT22;460;48.734;9.152;2022-07-29T02:36:54;18.50;99.90
947;DHT22;460;48.734;9.152;2022-07-29T02:39:23;18.50;99.90
947;DHT22;460;48.734;9.152;2022-07-29T02:41:52;18.50;99.90
947;DHT22;460;48.734;9.152;2022-07-29T02:44:23;18.60;99.90
947;DHT22;460;48.734;9.152;2022-07-29T02:46:52;18.60;99.90
947;DHT22;460;48.734;9.152;2022-07-29T02:49:32;18.50;99.90
947;DHT22;460;48.734;9.152;2022-07-29T02:52:02;18.50;99.90
947;DHT22;460;48.734;9.152;2022-07-29T02:54:36;18.40;99.90
947;DHT22;460;48.734;9.152;2022-07-29T02:57:09;18.50;99.90
947;DHT22;460;48.734;9.152;2022-07-29T02:59:41;18.50;99.90
947;DHT22;460;48.734;9.152;2022-07-29T03:02:09;18.50;99.90
947;DHT22;460;48.734;9.152;2022-07-29T03:04:39;18.50;99.90
947;DHT22;460;48.734;9.152;2022-07-29T03:07:07;18.40;99.90
947;DHT22;460;48.734;9.152;2022-07-29T03:09:36;18.30;99.90
947;DHT22;460;48.734;9.152;2022-07-29T03:12:04;18.30;99.90
947;DHT22;460;48.734;9.152;2022-07-29T03:14:32;18.30;99.90
947;DHT22;460;48.734;9.152;2022-07-29T03:16:59;18.40;99.90
947;DHT22;460;48.734;9.152;2022-07-29T03:19:26;18.50;99.90
947;DHT22;460;48.734;9.152;2022-07-29T03:21:56;18.50;99.90
947;DHT22;460;48.734;9.152;2022-07-29T03:24:28;18.40;99.90
947;DHT22;460;48.734;9.152;2022-07-29T03:26:56;18.30;99.90
947;DHT22;460;48.734;9.152;2022-07-29T03:29:23;18.20;99.90
947;DHT22;460;48.734;9.152;2022-07-29T03:31:50;18.20;99.90
947;DHT22;460;48.734;9.152;2022-07-29T03:34:17;18.20;99.90
947;DHT22;460;48.734;9.152;2022-07-29T03:36:44;18.00;99.90
947;DHT22;460;48.734;9.152;2022-07-29T03:39:15;17.90;99.90
947;DHT22;460;48.734;9.152;2022-07-29T03:41:45;17.90;99.90
947;DHT22;460;48.734;9.152;2022-07-29T03:44:14;17.90;99.90
947;DHT22;460;48.734;9.152;2022-07-29T03:46:42;17.80;99.90
947;DHT22;460;48.734;9.152;2022-07-29T03:49:11;17.80;99.90
947;DHT22;460;48.734;9.152;2022-07-29T03:51:39;17.80;99.90
947;DHT22;460;48.734;9.152;2022-07-29T03:54:06;17.80;99.90
947;DHT22;460;48.734;9.152;2022-07-29T03:56:38;17.90;99.90
947;DHT22;460;48.734;9.152;2022-07-29T03:59:07;17.90;99.90
947;DHT22;460;48.734;9.152;2022-07-29T04:01:34;17.90;99.90
947;DHT22;460;48.734;9.152;2022-07-29T04:04:02;17.90;99.90
947;DHT22;460;48.734;9.152;2022-07-29T04:06:37;17.80;99.90
947;DHT22;460;48.734;9.152;2022-07-29T04:09:04;17.80;99.90
947;DHT22;460;48.734;9.152;2022-07-29T04:11:31;17.80;99.90
947;DHT22;460;48.734;9.152;2022-07-29T04:13:59;17.70;99.90
947;DHT22;460;48.734;9.152;2022-07-29T04:16:26;17.70;99.90
947;DHT22;460;48.734;9.152;2022-07-29T04:18:53;17.70;99.90
947;DHT22;460;48.734;9.152;2022-07-29T04:21:20;17.70;99.90
947;DHT22;460;48.734;9.152;2022-07-29T04:23:47;17.60;99.90
947;DHT22;460;48.734;9.152;2022-07-29T04:26:15;17.50;99.90
947;DHT22;460;48.734;9.152;2022-07-29T04:28:42;17.60;99.90
947;DHT22;460;48.734;9.152;2022-07-29T04:31:11;17.70;99.90
947;DHT22;460;48.734;9.152;2022-07-29T04:33:38;17.80;99.90
947;DHT22;460;48.734;9.152;2022-07-29T04:36:06;17.80;99.90
947;DHT22;460;48.734;9.152;2022-07-29T04:38:32;17.90;99.90
947;DHT22;460;48.734;9.152;2022-07-29T04:40:59;18.00;99.90
947;DHT22;460;48.734;9.152;2022-07-29T04:43:26;18.00;99.90
947;DHT22;460;48.734;9.152;2022-07-29T04:45:53;17.90;99.90
947;DHT22;460;48.734;9.152;2022-07-29T04:48:21;18.00;99.90
947;DHT22;460;48.734;9.152;2022-07-29T04:50:48;18.00;99.90
947;DHT22;460;48.734;9.152;2022-07-29T04:53:15;18.10;99.90
947;DHT22;460;48.734;9.152;2022-07-29T04:55:42;18.20;99.90
947;DHT22;460;48.734;9.152;2022-07-29T04:58:09;18.40;99.90
947;DHT22;460;48.734;9.152;2022-07-29T05:00:35;18.50;99.90
947;DHT22;460;48.734;9.152;2022-07-29T05:03:02;18.60;99.90
947;DHT22;460;48.734;9.152;2022-07-29T05:05:31;18.80;99.90
947;DHT22;460;48.734;9.152;2022-07-29T05:07:58;18.90;99.90
947;DHT22;460;48.734;9.152;2022-07-29T05:10:24;19.00;99.90
947;DHT22;460;48.734;9.152;2022-07-29T05:12:51;19.00;99.90
947;DHT22;460;48.734;9.152;2022-07-29T05:15:18;19.20;99.90
947;DHT22;460;48.734;9.152;2022-07-29T05:17:45;19.20;99.90
947;DHT22;460;48.734;9.152;2022-07-29T05:20:12;19.20;99.90
947;DHT22;460;48.734;9.152;2022-07-29T05:22:40;19.30;99.90
947;DHT22;460;48.734;9.152;2022-07-29T05:25:07;19.30;99.90
947;DHT22;460;48.734;9.152;2022-07-29T05:27:35;19.40;99.90
947;DHT22;460;48.734;9.152;2022-07-29T05:30:03;19.50;99.90
947;DHT22;460;48.734;9.152;2022-07-29T05:32:30;19.60;99.90
947;DHT22;460;48.734;9.152;2022-07-29T05:34:57;19.70;99.90
947;DHT22;460;48.734;9.152;2022-07-29T05:37:24;19.70;99.90
947;DHT22;460;48.734;9.152;2022-07-29T05:39:52;19.80;99.90
947;DHT22;460;48.734;9.152;2022-07-29T05:42:19;19.80;99.90
947;DHT22;460;48.734;9.152;2022-07-29T05:44:45;19.90;99.90
947;DHT22;460;48.734;9.152;2022-07-29T05:47:13;19.80;99.90
947;DHT22;460;48.734;9.152;2022-07-29T05:49:40;19.90;99.90
947;DHT22;460;48.734;9.152;2022-07-29T05:52:07;20.00;99.90
947;DHT22;460;48.734;9.152;2022-07-29T05:54:34;20.10;99.90
947;DHT22;460;48.734;9.152;2022-07-29T05:57:03;20.00;99.90
947;DHT22;460;48.734;9.152;2022-07-29T05:59:30;20.10;99.90
947;DHT22;460;48.734;9.152;2022-07-29T06:01:57;20.20;99.90
947;DHT22;460;48.734;9.152;2022-07-29T06:04:24;20.40;99.90
947;DHT22;460;48.734;9.152;2022-07-29T06:06:51;20.40;99.90
947;DHT22;460;48.734;9.152;2022-07-29T06:09:18;20.50;99.90
947;DHT22;460;48.734;9.152;2022-07-29T06:11:45;20.60;99.90
947;DHT22;460;48.734;9.152;2022-07-29T06:14:14;20.70;99.90
947;DHT22;460;48.734;9.152;2022-07-29T06:16:41;20.70;99.90
947;DHT22;460;48.734;9.152;2022-07-29T06:19:08;20.80;99.70
947;DHT22;460;48.734;9.152;2022-07-29T06:21:35;21.00;99.40
947;DHT22;460;48.734;9.152;2022-07-29T06:24:02;21.10;99.10
947;DHT22;460;48.734;9.152;2022-07-29T06:26:29;21.20;98.60
947;DHT22;460;48.734;9.152;2022-07-29T06:28:55;21.40;98.40
947;DHT22;460;48.734;9.152;2022-07-29T06:31:24;21.50;98.10
947;DHT22;460;48.734;9.152;2022-07-29T06:33:51;21.60;98.20
947;DHT22;460;48.734;9.152;2022-07-29T06:36:18;21.70;97.90
947;DHT22;460;48.734;9.152;2022-07-29T06:38:45;21.80;97.90
947;DHT22;460;48.734;9.152;2022-07-29T06:41:12;21.90;97.60
947;DHT22;460;48.734;9.152;2022-07-29T06:43:42;22.20;97.80
947;DHT22;460;48.734;9.152;2022-07-29T06:46:11;22.10;96.90
947;DHT22;460;48.734;9.152;2022-07-29T06:48:40;22.30;96.80
947;DHT22;460;48.734;9.152;2022-07-29T06:51:09;22.20;96.70
947;DHT22;460;48.734;9.152;2022-07-29T06:53:37;22.20;96.70
947;DHT22;460;48.734;9.152;2022-07-29T06:56:06;22.20;96.90
947;DHT22;460;48.734;9.152;2022-07-29T06:58:34;22.20;96.90
947;DHT22;460;48.734;9.152;2022-07-29T07:01:02;21.90;96.80
947;DHT22;460;48.734;9.152;2022-07-29T07:03:29;21.70;97.10
947;DHT22;460;48.734;9.152;2022-07-29T07:05:58;21.70;97.70
947;DHT22;460;48.734;9.152;2022-07-29T07:08:25;21.90;97.70
947;DHT22;460;48.734;9.152;2022-07-29T07:10:52;22.00;97.40
947;DHT22;460;48.734;9.152;2022-07-29T07:13:20;22.20;97.00
947;DHT22;460;48.734;9.152;2022-07-29T07:15:50;22.40;96.70
947;DHT22;460;48.734;9.152;2022-07-29T07:18:18;22.50;96.60
947;DHT22;460;48.734;9.152;2022-07-29T07:20:45;22.40;96.80
947;DHT22;460;48.734;9.152;2022-07-29T07:23:14;22.40;96.30
947;DHT22;460;48.734;9.152;2022-07-29T07:25:41;22.50;95.90
947;DHT22;460;48.734;9.152;2022-07-29T07:28:08;22.50;95.80
947;DHT22;460;48.734;9.152;2022-07-29T07:30:35;22.50;96.00
947;DHT22;460;48.734;9.152;2022-07-29T07:33:02;22.50;97.10
947;DHT22;460;48.734;9.152;2022-07-29T07:35:30;22.50;96.70
947;DHT22;460;48.734;9.152;2022-07-29T07:37:57;22.60;97.00
947;DHT22;460;48.734;9.152;2022-07-29T07:40:25;22.60;96.50
947;DHT22;460;48.734;9.152;2022-07-29T07:42:52;22.60;97.00
947;DHT22;460;48.734;9.152;2022-07-29T07:45:19;22.70;96.50
947;DHT22;460;48.734;9.152;2022-07-29T07:47:46;22.80;97.10
947;DHT22;460;48.734;9.152;2022-07-29T07:50:13;22.90;96.70
947;DHT22;460;48.734;9.152;2022-07-29T07:52:48;23.20;96.40
947;DHT22;460;48.734;9.152;2022-07-29T07:55:15;23.40;95.90
947;DHT22;460;48.734;9.152;2022-07-29T07:57:44;23.40;95.00
947;DHT22;460;48.734;9.152;2022-07-29T08:00:13;23.30;96.20
947;DHT22;460;48.734;9.152;2022-07-29T08:02:40;23.00;96.00
947;DHT22;460;48.734;9.152;2022-07-29T08:05:09;23.10;95.90
947;DHT22;460;48.734;9.152;2022-07-29T08:07:37;23.40;95.30
947;DHT22;460;48.734;9.152;2022-07-29T08:10:04;23.50;95.10
947;DHT22;460;48.734;9.152;2022-07-29T08:12:31;23.60;95.30
947;DHT22;460;48.734;9.152;2022-07-29T08:15:00;23.80;94.50
947;DHT22;460;48.734;9.152;2022-07-29T08:17:27;23.90;94.60
947;DHT22;460;48.734;9.152;2022-07-29T08:19:54;24.00;94.10
947;DHT22;460;48.734;9.152;2022-07-29T08:22:20;24.20;93.90
947;DHT22;460;48.734;9.152;2022-07-29T08:24:47;24.20;93.70
947;DHT22;460;48.734;9.152;2022-07-29T08:27:22;24.10;92.70
947;DHT22;460;48.734;9.152;2022-07-29T08:29:49;23.70;93.00
947;DHT22;460;48.734;9.152;2022-07-29T08:32:17;23.80;93.50
947;DHT22;460;48.734;9.152;2022-07-29T08:34:44;24.00;91.60
947;DHT22;460;48.734;9.152;2022-07-29T08:37:12;24.00;87.40
947;DHT22;460;48.734;9.152;2022-07-29T08:39:44;24.20;85.60
947;DHT22;460;48.734;9.152;2022-07-29T08:42:15;24.20;84.00
947;DHT22;460;48.734;9.152;2022-07-29T08:44:48;24.10;83.90
947;DHT22;460;48.734;9.152;2022-07-29T08:47:19;24.00;84.00
947;DHT22;460;48.734;9.152;2022-07-29T08:49:46;24.10;84.30
947;DHT22;460;48.734;9.152;2022-07-29T08:52:14;24.20;84.50
947;DHT22;460;48.734;9.152;2022-07-29T08:54:43;24.30;85.30
947;DHT22;460;48.734;9.152;2022-07-29T08:57:12;24.40;85.20
947;DHT22;460;48.734;9.152;2022-07-29T08:59:40;24.50;85.40
947;DHT22;460;48.734;9.152;2022-07-29T09:02:15;24.50;84.30
947;DHT22;460;48.734;9.152;2022-07-29T09:04:46;24.60;84.60
947;DHT22;460;48.734;9.152;2022-07-29T09:07:15;24.80;83.40
947;DHT22;460;48.734;9.152;2022-07-29T09:09:43;25.00;84.10
947;DHT22;460;48.734;9.152;2022-07-29T09:12:13;25.20;78.90
947;DHT22;460;48.734;9.152;2022-07-29T09:14:43;25.30;80.30
947;DHT22;460;48.734;9.152;2022-07-29T09:17:13;25.50;79.70
947;DHT22;460;48.734;9.152;2022-07-29T09:19:42;25.60;80.00
947;DHT22;460;48.734;9.152;2022-07-29T09:22:10;25.70;78.90
947;DHT22;460;48.734;9.152;2022-07-29T09:24:40;25.80;77.20
947;DHT22;460;48.734;9.152;2022-07-29T09:27:18;26.00;76.70
947;DHT22;460;48.734;9.152;2022-07-29T09:29:46;26.10;74.30
947;DHT22;460;48.734;9.152;2022-07-29T09:32:13;26.20;75.20
947;DHT22;460;48.734;9.152;2022-07-29T09:34:40;26.30;74.10
947;DHT22;460;48.734;9.152;2022-07-29T09:37:07;26.40;72.40
947;DHT22;460;48.734;9.152;2022-07-29T09:39:37;26.30;69.70
947;DHT22;460;48.734;9.152;2022-07-29T09:42:11;26.30;70.90
947;DHT22;460;48.734;9.152;2022-07-29T09:44:46;26.10;70.80
947;DHT22;460;48.734;9.152;2022-07-29T09:47:17;26.10;70.20
947;DHT22;460;48.734;9.152;2022-07-29T09:49:52;26.40;70.70
947;DHT22;460;48.734;9.152;2022-07-29T09:52:19;26.40;68.60
947;DHT22;460;48.734;9.152;2022-07-29T09:54:48;26.90;69.40
947;DHT22;460;48.734;9.152;2022-07-29T09:57:24;26.90;69.90
947;DHT22;460;48.734;9.152;2022-07-29T09:59:59;26.90;70.50
947;DHT22;460;48.734;9.152;2022-07-29T10:02:30;27.10;66.50
947;DHT22;460;48.734;9.152;2022-07-29T10:05:00;27.10;67.30
947;DHT22;460;48.734;9.152;2022-07-29T10:07:43;27.40;66.90
947;DHT22;460;48.734;9.152;2022-07-29T10:10:19;27.50;64.30
947;DHT22;460;48.734;9.152;2022-07-29T10:12:52;27.40;67.00
947;DHT22;460;48.734;9.152;2022-07-29T10:15:21;27.40;67.90
947;DHT22;460;48.734;9.152;2022-07-29T10:17:49;27.50;68.60
947;DHT22;460;48.734;9.152;2022-07-29T10:20:17;27.50;66.30
947;DHT22;460;48.734;9.152;2022-07-29T10:22:44;27.70;66.40
947;DHT22;460;48.734;9.152;2022-07-29T10:25:14;27.70;66.60
947;DHT22;460;48.734;9.152;2022-07-29T10:27:42;27.50;68.50
947;DHT22;460;48.734;9.152;2022-07-29T10:30:13;27.30;67.20
947;DHT22;460;48.734;9.152;2022-07-29T10:32:57;27.10;68.40
947;DHT22;460;48.734;9.152;2022-07-29T10:38:41;26.60;72.60
947;DHT22;460;48.734;9.152;2022-07-29T10:44:21;26.00;73.30
947;DHT22;460;48.734;9.152;2022-07-29T10:46:49;25.70;76.10
947;DHT22;460;48.734;9.152;2022-07-29T10:49:18;25.20;73.30
947;DHT22;460;48.734;9.152;2022-07-29T10:52:07;24.80;75.10
947;DHT22;460;48.734;9.152;2022-07-29T10:54:46;24.90;78.50
947;DHT22;460;48.734;9.152;2022-07-29T10:57:17;24.60;79.80
947;DHT22;460;48.734;9.152;2022-07-29T10:59:48;24.20;86.70
947;DHT22;460;48.734;9.152;2022-07-29T11:02:41;23.70;91.20
947;DHT22;460;48.734;9.152;2022-07-29T11:05:10;23.40;93.40
947;DHT22;460;48.734;9.152;2022-07-29T11:07:39;23.10;95.30
947;DHT22;460;48.734;9.152;2022-07-29T11:10:22;22.90;97.20
947;DHT22;460;48.734;9.152;2022-07-29T11:12:50;22.50;98.60
947;DHT22;460;48.734;9.152;2022-07-29T11:15:21;22.20;98.80
947;DHT22;460;48.734;9.152;2022-07-29T11:18:07;22.50;99.90
947;DHT22;460;48.734;9.152;2022-07-29T11:20:37;22.50;99.90
947;DHT22;460;48.734;9.152;2022-07-29T11:23:25;22.30;99.90
947;DHT22;460;48.734;9.152;2022-07-29T11:26:18;21.80;99.90
947;DHT22;460;48.734;9.152;2022-07-29T11:28:51;21.90;99.90
947;DHT22;460;48.734;9.152;2022-07-29T11:31:33;21.70;99.90
947;DHT22;460;48.734;9.152;2022-07-29T11:34:20;21.50;99.90
947;DHT22;460;48.734;9.152;2022-07-29T11:40:14;21.60;99.90
947;DHT22;460;48.734;9.152;2022-07-29T11:42:45;21.10;99.90
947;DHT22;460;48.734;9.152;2022-07-29T11:45:15;20.90;99.90
947;DHT22;460;48.734;9.152;2022-07-29T11:47:52;20.90;99.90
947;DHT22;460;48.734;9.152;2022-07-29T11:50:34;21.20;99.90
947;DHT22;460;48.734;9.152;2022-07-29T11:53:02;21.40;99.90
947;DHT22;460;48.734;9.152;2022-07-29T11:55:32;21.20;99.90
947;DHT22;460;48.734;9.152;2022-07-29T11:58:03;21.40;99.90
947;DHT22;460;48.734;9.152;2022-07-29T12:00:31;21.30;99.90
947;DHT22;460;48.734;9.152;2022-07-29T12:03:04;21.20;99.90
947;DHT22;460;48.734;9.152;2022-07-29T12:05:37;21.20;99.90
947;DHT22;460;48.734;9.152;2022-07-29T12:08:06;21.20;99.90
947;DHT22;460;48.734;9.152;2022-07-29T12:10:33;21.10;99.90
947;DHT22;460;48.734;9.152;2022-07-29T12:13:00;21.10;99.20
947;DHT22;460;48.734;9.152;2022-07-29T12:15:30;21.10;99.50
947;DHT22;460;48.734;9.152;2022-07-29T12:17:57;20.90;99.90
947;DHT22;460;48.734;9.152;2022-07-29T12:20:28;20.80;99.90
947;DHT22;460;48.734;9.152;2022-07-29T12:22:55;20.70;99.90
947;DHT22;460;48.734;9.152;2022-07-29T12:25:23;20.80;99.90
947;DHT22;460;48.734;9.152;2022-07-29T12:28:00;20.90;99.90
947;DHT22;460;48.734;9.152;2022-07-29T12:30:35;21.10;99.90
947;DHT22;460;48.734;9.152;2022-07-29T12:33:19;21.10;99.90
947;DHT22;460;48.734;9.152;2022-07-29T12:35:51;21.20;99.90
947;DHT22;460;48.734;9.152;2022-07-29T12:38:20;21.30;99.90
947;DHT22;460;48.734;9.152;2022-07-29T12:40:48;21.30;99.90
947;DHT22;460;48.734;9.152;2022-07-29T12:43:17;21.30;99.90
947;DHT22;460;48.734;9.152;2022-07-29T12:45:46;21.30;99.90
947;DHT22;460;48.734;9.152;2022-07-29T12:48:14;21.30;99.90
947;DHT22;460;48.734;9.152;2022-07-29T12:50:56;21.20;99.90
947;DHT22;460;48.734;9.152;2022-07-29T12:53:24;21.00;99.90
947;DHT22;460;48.734;9.152;2022-07-29T12:56:16;20.60;99.90
947;DHT22;460;48.734;9.152;2022-07-29T12:58:43;20.60;99.90
947;DHT22;460;48.734;9.152;2022-07-29T13:01:11;20.50;99.90
947;DHT22;460;48.734;9.152;2022-07-29T13:03:53;20.50;99.90
947;DHT22;460;48.734;9.152;2022-07-29T13:06:37;20.60;99.90
947;DHT22;460;48.734;9.152;2022-07-29T13:09:06;20.40;99.90
947;DHT22;460;48.734;9.152;2022-07-29T13:11:39;20.40;99.90
947;DHT22;460;48.734;9.152;2022-07-29T13:14:07;20.30;99.90
947;DHT22;460;48.734;9.152;2022-07-29T13:16:35;19.20;99.90
947;DHT22;460;48.734;9.152;2022-07-29T13:19:08;20.40;99.90
947;DHT22;460;48.734;9.152;2022-07-29T13:21:35;20.30;99.90
947;DHT22;460;48.734;9.152;2022-07-29T13:24:03;20.20;99.90
947;DHT22;460;48.734;9.152;2022-07-29T13:26:30;20.30;99.90
947;DHT22;460;48.734;9.152;2022-07-29T13:28:58;20.40;99.90
947;DHT22;460;48.734;9.152;2022-07-29T13:31:26;20.40;99.90
947;DHT22;460;48.734;9.152;2022-07-29T13:33:53;20.20;99.90
947;DHT22;460;48.734;9.152;2022-07-29T13:36:20;20.10;99.90
947;DHT22;460;48.734;9.152;2022-07-29T13:38:47;20.10;99.90
947;DHT22;460;48.734;9.152;2022-07-29T13:41:14;20.20;99.90
947;DHT22;460;48.734;9.152;2022-07-29T13:46:09;20.50;99.90
947;DHT22;460;48.734;9.152;2022-07-29T13:51:05;20.70;99.90
947;DHT22;460;48.734;9.152;2022-07-29T13:53:33;20.80;99.90
947;DHT22;460;48.734;9.152;2022-07-29T13:56:00;20.90;99.90
947;DHT22;460;48.734;9.152;2022-07-29T13:58:29;21.00;99.90
947;DHT22;460;48.734;9.152;2022-07-29T14:00:56;21.20;99.90
947;DHT22;460;48.734;9.152;2022-07-29T14:03:25;21.20;99.90
947;DHT22;460;48.734;9.152;2022-07-29T14:05:54;21.10;99.90
947;DHT22;460;48.734;9.152;2022-07-29T14:08:25;21.40;99.90
947;DHT22;460;48.734;9.152;2022-07-29T14:10:53;21.40;99.90
947;DHT22;460;48.734;9.152;2022-07-29T14:13:20;21.60;99.90
947;DHT22;460;48.734;9.152;2022-07-29T14:15:48;21.10;99.90
947;DHT22;460;48.734;9.152;2022-07-29T14:18:15;21.90;99.90
947;DHT22;460;48.734;9.152;2022-07-29T14:20:44;21.60;99.90
947;DHT22;460;48.734;9.152;2022-07-29T14:23:11;21.70;99.90
947;DHT22;460;48.734;9.152;2022-07-29T14:25:38;22.00;99.90
947;DHT22;460;48.734;9.152;2022-07-29T14:28:05;21.90;99.90
947;DHT22;460;48.734;9.152;2022-07-29T14:30:32;21.70;99.90
947;DHT22;460;48.734;9.152;2022-07-29T14:32:59;21.80;99.90
947;DHT22;460;48.734;9.152;2022-07-29T14:35:26;22.00;99.90
947;DHT22;460;48.734;9.152;2022-07-29T14:38:06;22.20;99.90
947;DHT22;460;48.734;9.152;2022-07-29T14:40:48;22.20;99.90
947;DHT22;460;48.734;9.152;2022-07-29T14:43:17;22.30;99.90
947;DHT22;460;48.734;9.152;2022-07-29T14:45:47;22.40;99.90
947;DHT22;460;48.734;9.152;2022-07-29T14:48:16;22.30;99.90
947;DHT22;460;48.734;9.152;2022-07-29T14:50:43;22.50;99.90
947;DHT22;460;48.734;9.152;2022-07-29T14:53:12;22.50;99.90
947;DHT22;460;48.734;9.152;2022-07-29T14:55:43;22.50;99.90
947;DHT22;460;48.734;9.152;2022-07-29T14:58:13;22.50;99.90
947;DHT22;460;48.734;9.152;2022-07-29T15:00:40;22.50;99.90
947;DHT22;460;48.734;9.152;2022-07-29T15:03:07;22.70;99.90
947;DHT22;460;48.734;9.152;2022-07-29T15:05:39;22.70;99.90
947;DHT22;460;48.734;9.152;2022-07-29T15:08:06;22.80;99.90
947;DHT22;460;48.734;9.152;2022-07-29T15:10:36;22.90;99.90
947;DHT22;460;48.734;9.152;2022-07-29T15:13:03;23.00;99.90
947;DHT22;460;48.734;9.152;2022-07-29T15:15:30;23.10;99.90
947;DHT22;460;48.734;9.152;2022-07-29T15:17:57;23.00;99.90
947;DHT22;460;48.734;9.152;2022-07-29T15:20:24;22.90;99.90
947;DHT22;460;48.734;9.152;2022-07-29T15:22:52;22.80;99.90
947;DHT22;460;48.734;9.152;2022-07-29T15:25:21;22.80;99.90
947;DHT22;460;48.734;9.152;2022-07-29T15:27:49;22.70;99.90
947;DHT22;460;48.734;9.152;2022-07-29T15:30:16;22.70;99.90
947;DHT22;460;48.734;9.152;2022-07-29T15:32:43;22.60;99.90
947;DHT22;460;48.734;9.152;2022-07-29T15:35:11;22.50;99.90
947;DHT22;460;48.734;9.152;2022-07-29T15:37:38;22.60;99.90
947;DHT22;460;48.734;9.152;2022-07-29T15:40:06;22.50;99.90
947;DHT22;460;48.734;9.152;2022-07-29T15:42:42;22.60;99.90
947;DHT22;460;48.734;9.152;2022-07-29T15:45:13;22.60;99.90
947;DHT22;460;48.734;9.152;2022-07-29T15:47:40;22.60;99.90
947;DHT22;460;48.734;9.152;2022-07-29T15:50:08;22.70;99.90
947;DHT22;460;48.734;9.152;2022-07-29T15:52:40;22.60;99.90
947;DHT22;460;48.734;9.152;2022-07-29T15:55:08;22.60;99.90
947;DHT22;460;48.734;9.152;2022-07-29T15:57:34;22.50;99.90
947;DHT22;460;48.734;9.152;2022-07-29T16:00:02;22.50;99.90
947;DHT22;460;48.734;9.152;2022-07-29T16:02:31;22.50;99.90
947;DHT22;460;48.734;9.152;2022-07-29T16:04:57;22.50;99.90
947;DHT22;460;48.734;9.152;2022-07-29T16:07:24;22.60;99.90
947;DHT22;460;48.734;9.152;2022-07-29T16:09:51;22.70;99.90
947;DHT22;460;48.734;9.152;2022-07-29T16:12:18;22.80;99.90
947;DHT22;460;48.734;9.152;2022-07-29T16:14:48;22.70;99.90
947;DHT22;460;48.734;9.152;2022-07-29T16:17:15;22.60;99.90
947;DHT22;460;48.734;9.152;2022-07-29T16:19:44;22.50;99.90
947;DHT22;460;48.734;9.152;2022-07-29T16:22:11;22.50;99.90
947;DHT22;460;48.734;9.152;2022-07-29T16:24:38;22.50;99.90
947;DHT22;460;48.734;9.152;2022-07-29T16:27:06;22.40;99.90
947;DHT22;460;48.734;9.152;2022-07-29T16:29:33;22.40;99.90
947;DHT22;460;48.734;9.152;2022-07-29T16:32:01;22.40;99.90
947;DHT22;460;48.734;9.152;2022-07-29T16:34:28;22.30;99.90
947;DHT22;460;48.734;9.152;2022-07-29T16:36:56;22.20;99.90
947;DHT22;460;48.734;9.152;2022-07-29T16:39:23;22.30;99.90
947;DHT22;460;48.734;9.152;2022-07-29T16:41:50;22.20;99.90
947;DHT22;460;48.734;9.152;2022-07-29T16:44:17;22.20;99.90
947;DHT22;460;48.734;9.152;2022-07-29T16:46:44;22.10;99.90
947;DHT22;460;48.734;9.152;2022-07-29T16:49:11;22.10;99.90
947;DHT22;460;48.734;9.152;2022-07-29T16:51:38;22.00;99.90
947;DHT22;460;48.734;9.152;2022-07-29T16:54:06;22.00;99.90
947;DHT22;460;48.734;9.152;2022-07-29T16:56:35;21.90;99.90
947;DHT22;460;48.734;9.152;2022-07-29T16:59:02;21.80;99.90
947;DHT22;460;48.734;9.152;2022-07-29T17:01:29;21.80;99.90
947;DHT22;460;48.734;9.152;2022-07-29T17:04:12;21.70;99.90
947;DHT22;460;48.734;9.152;2022-07-29T17:09:11;21.70;99.90